sim
Sign-in with your pilot id or email,
or register
Callsign
Passwort

Schedule Details

Flight Number: DLH2054
Departure: Munich Airport (EDDM) at 20:30
Arrival: Berlin Tegel Airport (EDDT) at 21:40
Route: Lufthansa Passenger Schedule. Enter filed route here before submitting Pirep.

Weather Information
Getting current METAR information for EDDM 270950Z 23009KT 200V290 9999 FEW040 13/03 Q1005 NOSIG
Getting current METAR information for EDDT 270950Z 25003KT 190V300 9999 -RA FEW010 10/07 Q1003 NOSIG

Schedule Frequency

Route Map